createdAt,value
2017-09-18T00:00:29.535Z,11.75
2017-09-18T00:03:00.992Z,11.76
2017-09-18T00:05:36.907Z,11.76
2017-09-18T00:08:11.466Z,11.75
2017-09-18T00:10:45.685Z,11.76
2017-09-18T00:13:17.142Z,11.76
2017-09-18T00:15:49.279Z,11.75
2017-09-18T00:18:19.921Z,11.74
2017-09-18T00:20:54.168Z,11.73
2017-09-18T00:23:27.704Z,11.73
2017-09-18T00:25:59.753Z,11.71
2017-09-18T00:28:32.660Z,11.70
2017-09-18T00:31:03.718Z,11.70
2017-09-18T00:33:34.972Z,11.70
2017-09-18T00:36:06.105Z,11.67
2017-09-18T00:38:42.822Z,11.67
2017-09-18T00:41:14.573Z,11.68
2017-09-18T00:43:46.760Z,11.63
2017-09-18T00:46:17.360Z,11.63
2017-09-18T00:48:48.372Z,11.62
2017-09-18T00:51:19.037Z,11.61
2017-09-18T00:53:51.002Z,11.60
2017-09-18T00:56:23.216Z,11.58
2017-09-18T00:58:56.413Z,11.57
2017-09-18T01:01:28.052Z,11.57
2017-09-18T01:04:00.335Z,11.55
2017-09-18T01:06:31.882Z,11.52
2017-09-18T01:09:04.298Z,11.51
2017-09-18T01:11:37.472Z,11.50
2017-09-18T01:14:10.553Z,11.49
2017-09-18T01:16:42.427Z,11.46
2017-09-18T01:19:14.040Z,11.45
2017-09-18T01:21:45.997Z,11.43
2017-09-18T01:24:17.925Z,11.43
2017-09-18T01:26:50.518Z,11.41
2017-09-18T01:29:25.442Z,11.40
2017-09-18T01:31:58.670Z,11.37
2017-09-18T01:34:29.723Z,11.37
2017-09-18T01:37:02.958Z,11.33
2017-09-18T01:39:39.025Z,11.31
2017-09-18T01:42:12.676Z,11.28
2017-09-18T01:44:48.388Z,11.26
2017-09-18T01:47:23.919Z,11.24
2017-09-18T01:49:55.332Z,11.21
2017-09-18T01:52:27.688Z,11.20
2017-09-18T01:55:01.416Z,11.14
2017-09-18T01:57:35.319Z,11.13
2017-09-18T02:00:07.071Z,11.11
2017-09-18T02:02:39.359Z,11.06
2017-09-18T02:05:13.498Z,11.02
2017-09-18T02:07:44.812Z,11.00
2017-09-18T02:10:17.881Z,10.98
2017-09-18T02:12:52.782Z,10.96
2017-09-18T02:15:26.272Z,10.93
2017-09-18T02:17:58.201Z,10.90
2017-09-18T02:20:29.377Z,10.89
2017-09-18T02:23:02.164Z,10.87
2017-09-18T02:25:32.936Z,10.84
2017-09-18T02:28:05.334Z,10.84
2017-09-18T02:30:39.944Z,10.82
2017-09-18T02:33:15.281Z,10.81
2017-09-18T02:35:50.406Z,10.78
2017-09-18T02:38:23.490Z,10.78
2017-09-18T02:40:59.742Z,10.76
2017-09-18T02:43:35.055Z,10.73
2017-09-18T02:46:08.091Z,10.72
2017-09-18T02:48:45.508Z,10.70
2017-09-18T02:51:17.559Z,10.70
2017-09-18T02:53:50.259Z,10.69
2017-09-18T02:56:21.830Z,10.67
2017-09-18T02:58:53.802Z,10.67
2017-09-18T03:01:31.838Z,10.66
2017-09-18T03:04:04.616Z,10.63
2017-09-18T03:06:37.522Z,10.63
2017-09-18T03:09:08.105Z,10.62
2017-09-18T03:11:39.537Z,10.63
2017-09-18T03:14:11.548Z,10.62
2017-09-18T03:16:42.375Z,10.60
2017-09-18T03:19:16.058Z,10.61
2017-09-18T03:21:48.219Z,10.60
2017-09-18T03:24:21.036Z,10.59
2017-09-18T03:26:55.122Z,10.61
2017-09-18T03:29:27.175Z,10.61
2017-09-18T03:32:02.496Z,10.60
2017-09-18T03:34:37.876Z,10.59
2017-09-18T03:37:08.953Z,10.61
2017-09-18T03:39:41.403Z,10.60
2017-09-18T03:42:18.441Z,10.59
2017-09-18T03:44:50.972Z,10.60
2017-09-18T03:47:23.315Z,10.60
2017-09-18T03:49:56.286Z,10.61
2017-09-18T03:52:30.716Z,10.60
2017-09-18T03:55:02.885Z,10.60
2017-09-18T03:57:35.107Z,10.60
2017-09-18T04:00:05.848Z,10.60
2017-09-18T04:02:34.909Z,10.60
2017-09-18T04:05:08.848Z,10.61
2017-09-18T04:07:39.292Z,10.59
2017-09-18T04:10:15.376Z,10.60
2017-09-18T04:12:48.227Z,10.59
2017-09-18T04:15:22.700Z,10.59
2017-09-18T04:17:56.539Z,10.57
2017-09-18T04:20:29.556Z,10.54
2017-09-18T04:23:00.693Z,10.54
2017-09-18T04:25:33.147Z,10.57
2017-09-18T04:28:05.188Z,10.56
2017-09-18T04:30:41.073Z,10.55
2017-09-18T04:33:16.949Z,10.55
2017-09-18T04:35:48.094Z,10.54
2017-09-18T04:38:18.894Z,10.56
2017-09-18T04:40:51.097Z,10.55
2017-09-18T04:43:22.365Z,10.55
2017-09-18T04:45:54.508Z,10.55
2017-09-18T04:48:27.532Z,10.55
2017-09-18T04:51:02.388Z,10.56
2017-09-18T04:53:37.437Z,10.56
2017-09-18T04:56:09.898Z,10.54
2017-09-18T04:58:42.060Z,10.57
2017-09-18T05:01:16.437Z,10.56
2017-09-18T05:03:49.659Z,10.55
2017-09-18T05:06:33.621Z,10.55
2017-09-18T05:09:05.488Z,10.55
2017-09-18T05:11:37.307Z,10.54
2017-09-18T05:14:18.159Z,10.55
2017-09-18T05:16:59.619Z,10.55
2017-09-18T05:19:31.730Z,10.56
2017-09-18T05:22:04.743Z,10.55
2017-09-18T05:24:36.211Z,10.56
2017-09-18T05:27:08.093Z,10.55
2017-09-18T05:29:40.830Z,10.53
2017-09-18T05:32:18.482Z,10.52
2017-09-18T05:34:52.365Z,10.51
2017-09-18T05:37:24.392Z,10.50
2017-09-18T05:39:58.456Z,10.49
2017-09-18T05:42:31.345Z,10.49
2017-09-18T05:45:04.186Z,10.49
2017-09-18T05:47:36.374Z,10.48
2017-09-18T05:50:08.204Z,10.46
2017-09-18T05:52:39.782Z,10.44
2017-09-18T05:55:11.583Z,10.44
2017-09-18T05:57:45.828Z,10.42
2017-09-18T06:00:17.671Z,10.41
2017-09-18T06:02:52.008Z,10.39
2017-09-18T06:05:25.084Z,10.40
2017-09-18T06:07:58.436Z,10.38
2017-09-18T06:10:32.162Z,10.39
2017-09-18T06:13:05.595Z,10.37
2017-09-18T06:15:38.067Z,10.37
2017-09-18T06:18:09.999Z,10.37
2017-09-18T06:20:42.386Z,10.35
2017-09-18T06:23:16.548Z,10.36
2017-09-18T06:25:48.286Z,10.36
2017-09-18T06:28:21.241Z,10.36
2017-09-18T06:30:54.874Z,10.35
2017-09-18T06:33:28.023Z,10.35
2017-09-18T06:36:02.548Z,10.36
2017-09-18T06:38:39.072Z,10.37
2017-09-18T06:41:11.361Z,10.37
2017-09-18T06:43:45.312Z,10.36
2017-09-18T06:46:19.224Z,10.38
2017-09-18T06:48:50.493Z,10.38
2017-09-18T06:51:22.669Z,10.40
2017-09-18T06:53:56.601Z,10.41
2017-09-18T06:56:28.811Z,10.43
2017-09-18T06:59:01.803Z,10.45
2017-09-18T07:01:37.433Z,10.46
2017-09-18T07:04:09.637Z,10.47
2017-09-18T07:06:42.582Z,10.51
2017-09-18T07:09:18.607Z,10.53
2017-09-18T07:11:51.943Z,10.55
2017-09-18T07:14:23.209Z,10.58
2017-09-18T07:16:55.587Z,10.61
2017-09-18T07:19:27.398Z,10.63
2017-09-18T07:21:57.864Z,10.67
2017-09-18T07:24:31.730Z,10.69
2017-09-18T07:27:07.434Z,10.72
2017-09-18T07:29:40.211Z,10.76
2017-09-18T07:32:11.924Z,10.79
2017-09-18T07:34:44.910Z,10.81
2017-09-18T07:37:16.797Z,10.84
2017-09-18T07:39:50.603Z,10.88
2017-09-18T07:42:26.039Z,10.91
2017-09-18T07:44:57.915Z,10.95
2017-09-18T07:47:35.332Z,10.98
2017-09-18T07:50:07.416Z,11.01
2017-09-18T07:52:40.871Z,11.05
2017-09-18T07:55:16.392Z,11.09
2017-09-18T07:57:49.167Z,11.12
2017-09-18T08:00:22.157Z,11.16
2017-09-18T08:02:54.684Z,11.23
2017-09-18T08:05:27.663Z,11.29
2017-09-18T08:08:01.335Z,11.34
2017-09-18T08:10:33.376Z,11.39
2017-09-18T08:13:07.007Z,11.44
2017-09-18T08:15:39.892Z,11.48
2017-09-18T08:18:13.968Z,11.55
2017-09-18T08:20:49.021Z,11.59
2017-09-18T08:23:20.689Z,11.64
2017-09-18T08:25:52.562Z,11.70
2017-09-18T08:28:24.947Z,11.75
2017-09-18T08:30:55.799Z,11.80
2017-09-18T08:33:26.928Z,11.85
2017-09-18T08:36:00.168Z,11.91
2017-09-18T08:38:33.561Z,11.97
2017-09-18T08:41:05.864Z,12.03
2017-09-18T08:43:37.780Z,12.10
2017-09-18T08:46:11.808Z,12.17
2017-09-18T08:48:46.084Z,12.24
2017-09-18T08:51:22.045Z,12.32
2017-09-18T08:53:53.957Z,12.40
2017-09-18T08:56:26.723Z,12.46
2017-09-18T08:58:58.873Z,12.53
2017-09-18T09:01:32.436Z,12.58
2017-09-18T09:04:05.485Z,12.66
2017-09-18T09:06:37.639Z,12.73
2017-09-18T09:09:12.505Z,12.80
2017-09-18T09:11:45.075Z,12.84
2017-09-18T09:14:17.181Z,12.90
2017-09-18T09:16:45.883Z,12.97
2017-09-18T09:19:14.569Z,13.03
2017-09-18T09:21:47.541Z,13.09
2017-09-18T09:24:19.941Z,13.12
2017-09-18T09:26:52.798Z,13.18
2017-09-18T09:29:24.568Z,13.21
2017-09-18T09:31:55.782Z,13.26
2017-09-18T09:34:28.231Z,13.30
2017-09-18T09:37:00.120Z,13.33
2017-09-18T09:39:35.037Z,13.37
2017-09-18T09:42:08.515Z,13.41
2017-09-18T09:44:45.118Z,13.43
2017-09-18T09:47:17.753Z,13.46
2017-09-18T09:49:52.125Z,13.51
2017-09-18T09:52:25.728Z,13.53
2017-09-18T09:54:58.243Z,13.58
2017-09-18T09:57:30.640Z,13.59
2017-09-18T10:00:03.082Z,13.62
2017-09-18T10:02:36.885Z,13.64
2017-09-18T10:05:10.042Z,13.65
2017-09-18T10:07:44.487Z,13.70
2017-09-18T10:10:17.762Z,13.71
2017-09-18T10:12:50.814Z,13.74
2017-09-18T10:15:22.898Z,13.77
2017-09-18T10:17:52.988Z,13.80
2017-09-18T10:20:25.832Z,13.81
2017-09-18T10:22:59.021Z,13.82
2017-09-18T10:25:30.881Z,13.87
2017-09-18T10:28:03.439Z,13.86
2017-09-18T10:30:38.963Z,13.88
2017-09-18T10:33:11.824Z,13.89
2017-09-18T10:35:47.493Z,13.90
2017-09-18T10:38:18.689Z,13.91
2017-09-18T10:40:49.739Z,13.94
2017-09-18T10:43:22.207Z,13.94
2017-09-18T10:45:55.006Z,13.92
2017-09-18T10:48:29.834Z,13.94
2017-09-18T10:51:01.305Z,13.96
2017-09-18T10:53:34.580Z,13.99
2017-09-18T10:56:06.476Z,14.01
2017-09-18T10:58:39.728Z,14.03
2017-09-18T11:01:12.313Z,14.05
2017-09-18T11:03:44.694Z,14.08
2017-09-18T11:06:16.172Z,14.11
2017-09-18T11:08:47.713Z,14.17
2017-09-18T11:11:19.762Z,14.20
2017-09-18T11:13:53.754Z,14.26
2017-09-18T11:16:27.269Z,14.31
2017-09-18T11:18:59.052Z,14.34
2017-09-18T11:21:32.590Z,14.37
2017-09-18T11:24:06.482Z,14.44
2017-09-18T11:26:39.565Z,14.52
2017-09-18T11:29:12.593Z,14.61
2017-09-18T11:31:45.174Z,14.63
2017-09-18T11:34:19.428Z,14.67
2017-09-18T11:36:50.989Z,14.69
2017-09-18T11:39:22.927Z,14.72
2017-09-18T11:41:53.586Z,14.77
2017-09-18T11:44:28.504Z,14.79
2017-09-18T11:47:01.394Z,14.83
2017-09-18T11:49:35.447Z,14.88
2017-09-18T11:52:07.436Z,14.90
2017-09-18T11:54:39.126Z,14.92
2017-09-18T11:57:11.038Z,14.96
2017-09-18T11:59:48.073Z,15.01
2017-09-18T12:02:20.889Z,15.04
2017-09-18T12:04:52.852Z,15.09
2017-09-18T12:07:25.072Z,15.11
2017-09-18T12:09:57.642Z,15.14
2017-09-18T12:12:29.782Z,15.17
2017-09-18T12:15:03.563Z,15.19
2017-09-18T12:17:35.843Z,15.24
2017-09-18T12:20:09.967Z,15.22
2017-09-18T12:22:45.121Z,15.26
2017-09-18T12:25:17.373Z,15.27
2017-09-18T12:27:49.795Z,15.28
2017-09-18T12:30:21.724Z,15.32
2017-09-18T12:32:55.416Z,15.34
2017-09-18T12:35:27.991Z,15.36
2017-09-18T12:38:02.458Z,15.37
2017-09-18T12:40:40.317Z,15.40
2017-09-18T12:43:18.010Z,15.41
2017-09-18T12:45:53.904Z,15.45
2017-09-18T12:48:26.582Z,15.46
2017-09-18T12:50:58.569Z,15.45
2017-09-18T12:53:29.961Z,15.46
2017-09-18T12:56:03.220Z,15.47
2017-09-18T12:58:37.275Z,15.50
2017-09-18T13:01:13.389Z,15.52
2017-09-18T13:03:46.225Z,15.55
2017-09-18T13:06:19.505Z,15.55
2017-09-18T13:08:50.439Z,15.56
2017-09-18T13:11:23.528Z,15.59
2017-09-18T13:13:56.187Z,15.62
2017-09-18T13:16:30.503Z,15.60
2017-09-18T13:19:04.488Z,15.60
2017-09-18T13:21:36.556Z,15.59
2017-09-18T13:24:10.097Z,15.60
2017-09-18T13:26:41.856Z,15.61
2017-09-18T13:29:14.032Z,15.60
2017-09-18T13:31:44.998Z,15.60
2017-09-18T13:34:19.913Z,15.61
2017-09-18T13:36:53.942Z,15.63
2017-09-18T13:39:26.983Z,15.64
2017-09-18T13:41:58.387Z,15.65
2017-09-18T13:44:32.382Z,15.63
2017-09-18T13:47:06.145Z,15.64
2017-09-18T13:49:38.738Z,15.65
2017-09-18T13:52:11.355Z,15.65
2017-09-18T13:54:45.605Z,15.63
2017-09-18T13:57:20.206Z,15.62
2017-09-18T13:59:56.924Z,15.60
2017-09-18T14:02:29.528Z,15.59
2017-09-18T14:05:00.703Z,15.57
2017-09-18T14:07:33.741Z,15.54
2017-09-18T14:10:10.560Z,15.52
2017-09-18T14:12:39.949Z,15.51
2017-09-18T14:15:12.906Z,15.47
2017-09-18T14:17:46.348Z,15.44
2017-09-18T14:20:19.091Z,15.39
2017-09-18T14:22:52.087Z,15.39
2017-09-18T14:25:23.867Z,15.36
2017-09-18T14:27:55.349Z,15.35
2017-09-18T14:30:26.555Z,15.34
2017-09-18T14:32:59.648Z,15.32
2017-09-18T14:35:32.897Z,15.32
2017-09-18T14:38:07.089Z,15.31
2017-09-18T14:40:39.222Z,15.32
2017-09-18T14:43:13.846Z,15.32
2017-09-18T14:45:44.957Z,15.33
2017-09-18T14:48:17.519Z,15.35
2017-09-18T14:50:51.862Z,15.39
2017-09-18T14:53:24.143Z,15.39
2017-09-18T14:55:59.008Z,15.40
2017-09-18T14:58:32.893Z,15.49
2017-09-18T15:01:03.923Z,15.49
2017-09-18T15:03:34.717Z,15.53
2017-09-18T15:06:07.833Z,15.56
2017-09-18T15:08:42.131Z,15.60
2017-09-18T15:11:15.173Z,15.66
2017-09-18T15:13:48.250Z,15.67
2017-09-18T15:16:20.716Z,15.70
2017-09-18T15:18:53.825Z,15.73
2017-09-18T15:21:27.000Z,15.76
2017-09-18T15:24:02.246Z,15.76
2017-09-18T15:26:36.375Z,15.77
2017-09-18T15:29:09.051Z,15.73
2017-09-18T15:31:40.542Z,15.72
2017-09-18T15:34:15.029Z,15.69
2017-09-18T15:36:47.858Z,15.67
2017-09-18T15:39:20.981Z,15.65
2017-09-18T15:41:53.718Z,15.62
2017-09-18T15:44:24.670Z,15.61
2017-09-18T15:47:00.238Z,15.58
2017-09-18T15:49:32.704Z,15.53
2017-09-18T15:52:04.867Z,15.51
2017-09-18T15:54:37.036Z,15.49
2017-09-18T15:57:09.613Z,15.50
2017-09-18T15:59:41.350Z,15.45
2017-09-18T16:02:19.019Z,15.44
2017-09-18T16:04:51.773Z,15.42
2017-09-18T16:07:23.212Z,15.38
2017-09-18T16:10:00.682Z,15.35
2017-09-18T16:12:38.506Z,15.33
2017-09-18T16:15:19.443Z,15.30
2017-09-18T16:18:05.344Z,15.29
2017-09-18T16:20:49.775Z,15.26
2017-09-18T16:23:23.994Z,15.24
2017-09-18T16:26:07.426Z,15.20
2017-09-18T16:28:50.247Z,15.19
2017-09-18T16:31:28.762Z,15.17
2017-09-18T16:34:06.944Z,15.14
2017-09-18T16:36:40.456Z,15.13
2017-09-18T16:39:27.477Z,15.10
2017-09-18T16:42:02.371Z,15.06
2017-09-18T16:47:24.321Z,15.02
2017-09-18T16:50:00.352Z,14.98
2017-09-18T16:52:35.891Z,14.96
2017-09-18T16:55:14.136Z,14.94
2017-09-18T16:57:48.105Z,14.91
2017-09-18T17:00:20.573Z,14.89
2017-09-18T17:02:53.159Z,14.87
2017-09-18T17:10:51.366Z,14.80
2017-09-18T17:16:04.239Z,14.76
2017-09-18T17:18:38.158Z,14.73
2017-09-18T17:21:19.621Z,14.72
2017-09-18T17:23:52.660Z,14.68
2017-09-18T17:26:24.533Z,14.67
2017-09-18T17:31:41.271Z,14.62
2017-09-18T17:34:17.040Z,14.61
2017-09-18T17:36:56.568Z,14.59
2017-09-18T17:39:41.673Z,14.56
2017-09-18T17:42:19.722Z,14.55
2017-09-18T17:44:56.206Z,14.52
2017-09-18T17:47:33.465Z,14.51
2017-09-18T17:50:11.712Z,14.49
2017-09-18T17:52:46.849Z,14.47
2017-09-18T17:55:30.321Z,14.44
2017-09-18T17:58:12.231Z,14.42
2017-09-18T18:00:55.237Z,14.39
2017-09-18T18:03:37.907Z,14.37
2017-09-18T18:06:20.549Z,14.34
2017-09-18T18:11:37.272Z,14.30
2017-09-18T18:14:14.826Z,14.28
2017-09-18T18:16:50.691Z,14.26
2017-09-18T18:19:26.932Z,14.23
2017-09-18T18:22:00.186Z,14.21
2017-09-18T18:24:38.702Z,14.19
2017-09-18T18:27:14.451Z,14.14
2017-09-18T18:29:46.577Z,14.13
2017-09-18T18:32:22.366Z,14.08
2017-09-18T18:34:57.260Z,14.06
2017-09-18T18:37:36.874Z,14.04
2017-09-18T18:40:11.812Z,14.03
2017-09-18T18:42:45.122Z,14.01
2017-09-18T18:45:18.584Z,14.01
2017-09-18T18:47:50.917Z,14.00
2017-09-18T18:50:23.815Z,13.99
2017-09-18T18:52:53.868Z,13.97
2017-09-18T18:55:24.005Z,13.95
2017-09-18T18:57:57.129Z,13.92
2017-09-18T19:00:27.977Z,13.91
2017-09-18T19:03:02.227Z,13.87
2017-09-18T19:05:33.439Z,13.84
2017-09-18T19:10:46.475Z,13.78
2017-09-18T19:13:20.329Z,13.73
2017-09-18T19:15:53.102Z,13.70
2017-09-18T19:18:25.199Z,13.67
2017-09-18T19:20:58.370Z,13.63
2017-09-18T19:23:32.037Z,13.60
2017-09-18T19:26:03.994Z,13.56
2017-09-18T19:28:36.065Z,13.53
2017-09-18T19:31:07.598Z,13.50
2017-09-18T19:33:38.841Z,13.44
2017-09-18T19:36:17.234Z,13.43
2017-09-18T19:38:47.745Z,13.41
2017-09-18T19:41:18.143Z,13.38
2017-09-18T19:43:50.115Z,13.36
2017-09-18T19:46:26.740Z,13.33
2017-09-18T19:49:00.020Z,13.30
2017-09-18T19:51:31.217Z,13.27
2017-09-18T19:54:00.793Z,13.25
2017-09-18T19:56:29.640Z,13.21
2017-09-18T19:58:59.647Z,13.19
2017-09-18T20:01:29.421Z,13.15
2017-09-18T20:04:00.199Z,13.13
2017-09-18T20:06:29.997Z,13.09
2017-09-18T20:09:03.224Z,13.07
2017-09-18T20:11:40.447Z,13.04
2017-09-18T20:14:12.532Z,13.01
2017-09-18T20:16:43.396Z,12.96
2017-09-18T20:19:16.482Z,12.93
2017-09-18T20:21:47.444Z,12.89
2017-09-18T20:24:22.391Z,12.86
2017-09-18T20:26:53.559Z,12.82
2017-09-18T20:29:25.317Z,12.77
2017-09-18T20:31:56.515Z,12.72
2017-09-18T20:34:27.926Z,12.69
2017-09-18T20:37:01.122Z,12.64
2017-09-18T20:39:33.806Z,12.63
2017-09-18T20:42:05.048Z,12.57
2017-09-18T20:44:37.204Z,12.53
2017-09-18T20:47:10.238Z,12.48
2017-09-18T20:49:44.721Z,12.44
2017-09-18T20:52:19.067Z,12.38
2017-09-18T20:54:52.698Z,12.35
2017-09-18T20:57:25.489Z,12.33
2017-09-18T20:59:58.295Z,12.27
2017-09-18T21:02:29.694Z,12.24
2017-09-18T21:05:02.255Z,12.20
2017-09-18T21:07:32.826Z,12.17
2017-09-18T21:10:04.589Z,12.13
2017-09-18T21:12:37.184Z,12.10
2017-09-18T21:15:09.625Z,12.05
2017-09-18T21:17:41.210Z,12.03
2017-09-18T21:20:15.197Z,11.99
2017-09-18T21:22:48.034Z,11.96
2017-09-18T21:25:21.155Z,11.93
2017-09-18T21:27:56.340Z,11.90
2017-09-18T21:30:29.062Z,11.87
2017-09-18T21:33:03.050Z,11.81
2017-09-18T21:35:36.697Z,11.78
2017-09-18T21:38:10.613Z,11.74
2017-09-18T21:40:42.895Z,11.71
2017-09-18T21:43:15.602Z,11.68
2017-09-18T21:45:46.701Z,11.67
2017-09-18T21:48:21.228Z,11.64
2017-09-18T21:50:52.219Z,11.60
2017-09-18T21:53:22.420Z,11.58
2017-09-18T21:55:56.772Z,11.55
2017-09-18T21:58:29.319Z,11.54
2017-09-18T22:01:05.073Z,11.47
2017-09-18T22:03:36.221Z,11.47
2017-09-18T22:06:06.937Z,11.45
2017-09-18T22:08:39.054Z,11.42
2017-09-18T22:11:13.688Z,11.39
2017-09-18T22:13:45.973Z,11.34
2017-09-18T22:16:18.257Z,11.32
2017-09-18T22:18:51.829Z,11.30
2017-09-18T22:21:27.292Z,11.29
2017-09-18T22:23:58.491Z,11.23
2017-09-18T22:26:30.382Z,11.20
2017-09-18T22:29:02.740Z,11.20
2017-09-18T22:31:34.336Z,11.18
2017-09-18T22:34:06.635Z,11.15
2017-09-18T22:36:40.537Z,11.11
2017-09-18T22:39:15.808Z,11.08
2017-09-18T22:41:49.139Z,11.06
2017-09-18T22:44:21.283Z,11.01
2017-09-18T22:46:52.667Z,11.00
2017-09-18T22:49:26.227Z,10.96
2017-09-18T22:51:58.877Z,10.93
2017-09-18T22:54:31.673Z,10.88
2017-09-18T22:57:04.259Z,10.86
2017-09-18T22:59:36.171Z,10.83
2017-09-18T23:02:08.616Z,10.82
2017-09-18T23:04:40.772Z,10.79
2017-09-18T23:07:13.409Z,10.77
2017-09-18T23:09:44.978Z,10.76
2017-09-18T23:12:15.012Z,10.74
2017-09-18T23:14:47.911Z,10.73
2017-09-18T23:17:23.318Z,10.68
2017-09-18T23:19:56.557Z,10.66
2017-09-18T23:22:31.955Z,10.63
2017-09-18T23:25:05.357Z,10.59
2017-09-18T23:27:38.207Z,10.57
2017-09-18T23:30:14.005Z,10.55
2017-09-18T23:32:49.771Z,10.53
2017-09-18T23:35:23.926Z,10.49
2017-09-18T23:37:57.613Z,10.48
2017-09-18T23:40:29.848Z,10.45
2017-09-18T23:43:01.921Z,10.43
2017-09-18T23:45:34.309Z,10.40
2017-09-18T23:48:07.919Z,10.38
2017-09-18T23:50:39.906Z,10.37
2017-09-18T23:53:11.424Z,10.34
2017-09-18T23:55:42.905Z,10.32
2017-09-18T23:58:17.176Z,10.29
